Terminal Aerodrome Forecast
Issued by NWS Wichita, KS

Home | Current Version | Previous Version | Graphics & Text | Print | Product List | Glossary On
Versions: 1 2 3 4 5 6 7 8 9 10 11 12 13 14 15 16 17 18 19 20 21
000
FTUS43 KICT 161100
TAFICT
TAF
KICT 161125Z 1612/1712 17018G25KT P6SM BKN250 WS020/17045KT
     FM161400 19027G36KT P6SM SCT250
     FM162100 23016G23KT P6SM BKN250
     FM170000 21012KT P6SM BKN250
     FM170500 02014KT P6SM BKN060=

USA.gov is the U.S. government's official web portal to all federal, state and local government web resources and services.